Time;durP1;ratioP1;P1;durP2;ratioP2;P2;SDS_P1;SDS_P2;PMS_P1;PMS_P2;Temp;Humidity;BMP_temperature;BMP_pressure;BME280_temperature;BME280_humidity;BME280_pressure;Samples;Min_cycle;Max_cycle;Signal;HPM_P1;HPM_P2
2022/08/28 00:01:27;;;;;;;9.38;2.60;;;;;;;-144.43;100.00;67396.00;5101179;28;20024;-60
2022/08/28 00:03:54;;;;;;;4.45;2.40;;;;;;;-144.43;100.00;67396.00;5113702;28;20504;-61
2022/08/28 00:06:21;;;;;;;4.78;2.20;;;;;;;-144.43;100.00;67396.00;5113121;28;20054;-60
2022/08/28 00:08:48;;;;;;;12.98;2.47;;;;;;;-144.43;100.00;67396.00;5112783;28;20049;-60
2022/08/28 00:11:15;;;;;;;9.43;2.53;;;;;;;-144.43;100.00;67396.00;5113214;27;20067;-62
2022/08/28 00:13:42;;;;;;;9.43;2.70;;;;;;;-144.43;100.00;67396.00;5113504;28;20047;-61
2022/08/28 00:16:09;;;;;;;10.98;2.80;;;;;;;-144.43;100.00;67396.00;5113492;28;20445;-61
2022/08/28 00:18:35;;;;;;;6.55;2.67;;;;;;;-144.43;100.00;67396.00;5087242;28;20493;-62
2022/08/28 00:21:03;;;;;;;24.40;3.63;;;;;;;-144.43;100.00;67396.00;5101940;28;20039;-61
2022/08/28 00:23:31;;;;;;;6.18;2.58;;;;;;;-144.43;100.00;67396.00;5098331;28;20031;-63
2022/08/28 00:25:59;;;;;;;7.32;2.58;;;;;;;-144.43;100.00;67396.00;5100091;28;20019;-60
2022/08/28 00:28:26;;;;;;;10.77;2.60;;;;;;;-144.43;100.00;67396.00;5098961;28;20035;-61
2022/08/28 00:30:54;;;;;;;10.73;3.00;;;;;;;-144.43;100.00;67396.00;5099335;28;20031;-63
2022/08/28 00:33:26;;;;;;;8.52;2.70;;;;;;;-144.43;100.00;67396.00;5100230;28;20506;-63
2022/08/28 00:35:53;;;;;;;7.40;2.78;;;;;;;-144.43;100.00;67396.00;5089989;28;20118;-63
2022/08/28 00:38:22;;;;;;;5.72;2.50;;;;;;;-144.43;100.00;67396.00;5092075;28;20039;-63
2022/08/28 00:40:51;;;;;;;19.80;3.17;;;;;;;-144.43;100.00;67396.00;5093228;28;20027;-62
2022/08/28 00:43:44;;;;;;;5.68;2.47;;;;;;;-144.43;100.00;67396.00;5091701;28;20052;-62
2022/08/28 00:46:18;;;;;;;8.07;2.55;;;;;;;-144.43;100.00;67396.00;5091158;28;20030;-63
2022/08/28 00:48:46;;;;;;;6.25;2.33;;;;;;;-144.43;100.00;67396.00;5086865;28;20127;-65
2022/08/28 00:54:00;;;;;;;10.05;2.47;;;;;;;-144.43;100.00;67396.00;5091783;28;20039;-60
2022/08/28 00:56:29;;;;;;;7.10;2.03;;;;;;;-144.43;100.00;67396.00;5091973;28;20024;-62
2022/08/28 00:59:00;;;;;;;8.55;2.00;;;;;;;-144.43;100.00;67396.00;5089850;28;20459;-62
2022/08/28 01:01:27;;;;;;;38.55;4.78;;;;;;;-144.43;100.00;67396.00;5087419;28;20036;-63
2022/08/28 01:03:54;;;;;;;20.83;2.92;;;;;;;-144.43;100.00;67396.00;5091593;28;20050;-63
2022/08/28 01:06:21;;;;;;;17.95;3.30;;;;;;;-144.43;100.00;67396.00;5092083;28;20048;-63
2022/08/28 01:08:48;;;;;;;36.67;4.43;;;;;;;-144.43;100.00;67396.00;5095186;28;20059;-63
2022/08/28 01:11:17;;;;;;;23.77;3.22;;;;;;;-144.43;100.00;67396.00;5096233;28;20036;-64
2022/08/28 01:13:47;;;;;;;25.55;3.78;;;;;;;-144.43;100.00;67396.00;5096423;28;20024;-64
2022/08/28 01:16:18;;;;;;;21.02;3.53;;;;;;;-144.43;100.00;67396.00;5085553;28;20085;-65
2022/08/28 01:18:46;;;;;;;27.60;3.45;;;;;;;-144.43;100.00;67396.00;5092195;28;20036;-63
2022/08/28 01:21:12;;;;;;;23.67;3.38;;;;;;;-144.43;100.00;67396.00;5086291;28;20036;-61
2022/08/28 01:23:52;;;;;;;21.52;3.10;;;;;;;-144.43;100.00;67396.00;5089933;28;20119;-63
2022/08/28 01:26:20;;;;;;;23.27;2.97;;;;;;;-144.43;100.00;67396.00;5078904;28;20067;-63
2022/08/28 01:28:47;;;;;;;33.95;3.53;;;;;;;-144.43;100.00;67396.00;5094554;28;20028;-61
2022/08/28 01:31:15;;;;;;;28.30;3.58;;;;;;;-144.43;100.00;67396.00;5096142;28;20059;-63
2022/08/28 01:33:43;;;;;;;24.88;3.40;;;;;;;-144.43;100.00;67396.00;5096356;28;20028;-63
2022/08/28 01:36:11;;;;;;;23.08;3.17;;;;;;;-144.43;100.00;67396.00;5079397;28;20037;-63
2022/08/28 01:38:41;;;;;;;16.77;3.40;;;;;;;-144.43;100.00;67396.00;5097377;28;20077;-60
2022/08/28 01:41:09;;;;;;;24.05;3.75;;;;;;;-144.43;100.00;67396.00;5106803;28;20497;-62
2022/08/28 01:43:39;;;;;;;25.33;3.58;;;;;;;-144.43;100.00;67396.00;5096066;28;20113;-64
2022/08/28 01:46:10;;;;;;;27.42;3.70;;;;;;;-144.43;100.00;67396.00;5095269;28;20394;-63
2022/08/28 01:48:41;;;;;;;22.38;3.13;;;;;;;-144.43;100.00;67396.00;5081287;28;20523;-63
2022/08/28 01:51:09;;;;;;;26.60;3.70;;;;;;;-144.43;100.00;67396.00;5087761;28;20056;-63
2022/08/28 01:53:37;;;;;;;13.88;2.65;;;;;;;-144.43;100.00;67396.00;5088735;28;20470;-63
2022/08/28 01:56:08;;;;;;;17.38;3.03;;;;;;;-144.43;100.00;67396.00;5092458;28;20105;-63
2022/08/28 01:58:35;;;;;;;18.73;2.80;;;;;;;-144.43;100.00;67396.00;5090574;28;20478;-63
2022/08/28 02:01:02;;;;;;;24.98;3.00;;;;;;;-144.43;100.00;67396.00;5085932;28;20043;-63
2022/08/28 02:03:29;;;;;;;16.80;2.90;;;;;;;-144.43;100.00;67396.00;5092399;28;20042;-64
2022/08/28 02:05:56;;;;;;;12.70;2.92;;;;;;;-144.43;100.00;67396.00;5092240;28;20098;-62
2022/08/28 02:08:23;;;;;;;15.15;3.97;;;;;;;-144.43;100.00;67396.00;5097860;28;20553;-63
2022/08/28 02:10:51;;;;;;;15.40;2.78;;;;;;;-144.43;100.00;67396.00;5101394;28;20020;-63
2022/08/28 02:13:18;;;;;;;11.07;2.72;;;;;;;-144.43;100.00;67396.00;5097680;28;20383;-63
2022/08/28 02:15:44;;;;;;;52.78;3.40;;;;;;;-144.43;100.00;67396.00;5095037;28;20024;-63
2022/08/28 02:18:13;;;;;;;13.88;2.70;;;;;;;-144.43;100.00;67396.00;5110242;28;20035;-63
2022/08/28 02:20:40;;;;;;;9.38;2.38;;;;;;;-144.43;100.00;67396.00;5092294;28;20102;-62
2022/08/28 02:23:08;;;;;;;11.50;2.30;;;;;;;-144.43;100.00;67396.00;5095251;28;20363;-63
2022/08/28 02:25:35;;;;;;;7.90;2.55;;;;;;;-144.43;100.00;67396.00;5089818;28;20373;-63
2022/08/28 02:28:02;;;;;;;13.98;2.67;;;;;;;-144.43;100.00;67396.00;5091254;28;20058;-62
2022/08/28 02:30:29;;;;;;;9.27;2.60;;;;;;;-144.43;100.00;67396.00;5093783;28;20035;-62
2022/08/28 02:32:56;;;;;;;8.98;2.33;;;;;;;-144.43;100.00;67396.00;5094776;28;20063;-63
2022/08/28 02:35:23;;;;;;;8.73;2.20;;;;;;;-144.43;100.00;67396.00;5095118;28;20383;-64
2022/08/28 02:37:50;;;;;;;10.48;2.25;;;;;;;-144.43;100.00;67396.00;5092557;28;20505;-63
2022/08/28 02:40:20;;;;;;;11.38;2.90;;;;;;;-144.43;100.00;67396.00;5092257;28;20067;-62
2022/08/28 02:42:48;;;;;;;9.13;2.83;;;;;;;-144.43;100.00;67396.00;5094609;28;20017;-63
2022/08/28 02:45:16;;;;;;;9.20;2.95;;;;;;;-144.43;100.00;67396.00;5089882;28;20351;-63
2022/08/28 02:47:45;;;;;;;12.05;2.83;;;;;;;-144.43;100.00;67396.00;5091285;28;20032;-64
2022/08/28 02:50:16;;;;;;;12.25;2.50;;;;;;;-144.43;100.00;67396.00;5101037;28;20062;-64
2022/08/28 02:52:43;;;;;;;13.75;2.70;;;;;;;-144.43;100.00;67396.00;5092167;28;20043;-67
2022/08/28 02:55:12;;;;;;;9.93;2.35;;;;;;;-144.43;100.00;67396.00;5094603;28;20027;-63
2022/08/28 02:57:40;;;;;;;12.70;2.70;;;;;;;-144.43;100.00;67396.00;5086080;28;20032;-63
2022/08/28 03:00:13;;;;;;;16.05;2.90;;;;;;;-144.43;100.00;67396.00;5086600;28;20032;-63
2022/08/28 03:02:41;;;;;;;13.05;2.65;;;;;;;-144.43;100.00;67396.00;5094573;28;20032;-64
2022/08/28 03:05:09;;;;;;;12.57;2.70;;;;;;;-144.43;100.00;67396.00;5094186;28;20067;-64
2022/08/28 03:07:37;;;;;;;13.52;2.80;;;;;;;-144.43;100.00;67396.00;5091354;28;20032;-64
2022/08/28 03:10:06;;;;;;;17.67;3.17;;;;;;;-144.43;100.00;67396.00;5090745;28;20498;-63
2022/08/28 03:12:34;;;;;;;12.73;3.10;;;;;;;-144.43;100.00;67396.00;5093971;28;20043;-64
2022/08/28 03:15:01;;;;;;;15.63;3.20;;;;;;;-144.43;100.00;67396.00;5093724;28;20020;-64
2022/08/28 03:17:28;;;;;;;16.33;4.15;;;;;;;-144.43;100.00;67396.00;5093744;28;20059;-65
2022/08/28 03:19:54;;;;;;;15.68;3.95;;;;;;;-144.43;100.00;67396.00;5087273;28;20432;-64
2022/08/28 03:25:07;;;;;;;25.23;4.28;;;;;;;-144.43;100.00;67396.00;5091278;28;20043;-64
2022/08/28 03:27:34;;;;;;;11.75;2.80;;;;;;;-144.43;100.00;67396.00;5088449;28;20051;-64
2022/08/28 03:30:01;;;;;;;10.75;2.65;;;;;;;-144.43;100.00;67396.00;5084592;28;20135;-64
2022/08/28 03:32:29;;;;;;;11.57;2.28;;;;;;;-144.43;100.00;67396.00;5087657;28;20055;-65
2022/08/28 03:34:58;;;;;;;12.15;2.45;;;;;;;-144.43;100.00;67396.00;5086663;28;20032;-64
2022/08/28 03:37:24;;;;;;;16.33;2.97;;;;;;;-144.43;100.00;67396.00;5100709;28;20032;-63
2022/08/28 03:39:51;;;;;;;15.43;3.20;;;;;;;-144.43;100.00;67396.00;5102192;28;20027;-63
2022/08/28 03:42:18;;;;;;;10.80;3.22;;;;;;;-144.43;100.00;67396.00;5101346;28;20498;-64
2022/08/28 03:44:47;;;;;;;10.63;2.72;;;;;;;-144.43;100.00;67396.00;5096536;28;20034;-64
2022/08/28 03:47:15;;;;;;;8.38;3.13;;;;;;;-144.43;100.00;67396.00;5101530;28;20077;-64
2022/08/28 03:49:44;;;;;;;9.88;3.08;;;;;;;-144.43;100.00;67396.00;5101197;28;20063;-65
2022/08/28 03:52:11;;;;;;;12.85;2.90;;;;;;;-144.43;100.00;67396.00;5088779;28;20209;-64
2022/08/28 03:54:38;;;;;;;11.43;2.80;;;;;;;-144.43;100.00;67396.00;5100636;28;20153;-66
2022/08/28 03:57:05;;;;;;;13.48;3.00;;;;;;;-144.43;100.00;67396.00;5092736;28;20063;-62
2022/08/28 03:59:31;;;;;;;11.32;3.10;;;;;;;-144.43;100.00;67396.00;5096383;28;20063;-64
2022/08/28 04:01:58;;;;;;;11.10;3.20;;;;;;;-144.43;100.00;67396.00;5097581;28;20016;-63
2022/08/28 04:04:25;;;;;;;14.70;3.83;;;;;;;-144.43;100.00;67396.00;5082515;28;20143;-64
2022/08/28 04:06:52;;;;;;;9.93;2.88;;;;;;;-144.43;100.00;67396.00;5083176;28;20066;-65
2022/08/28 04:09:19;;;;;;;11.38;3.42;;;;;;;-144.43;100.00;67396.00;5084115;28;20028;-63
2022/08/28 04:11:45;;;;;;;10.93;3.38;;;;;;;-144.43;100.00;67396.00;5087735;28;20023;-62
2022/08/28 04:14:12;;;;;;;13.18;3.97;;;;;;;-144.43;100.00;67396.00;5074549;28;20033;-64
2022/08/28 04:16:39;;;;;;;11.43;3.22;;;;;;;-144.43;100.00;67396.00;5082845;28;20016;-64
2022/08/28 04:19:06;;;;;;;9.38;3.30;;;;;;;-144.43;100.00;67396.00;5079355;28;20055;-64
2022/08/28 04:21:33;;;;;;;13.77;3.20;;;;;;;-144.43;100.00;67396.00;5092916;28;20394;-64
2022/08/28 04:24:00;;;;;;;8.35;2.55;;;;;;;-144.43;100.00;67396.00;5092069;28;20060;-64
2022/08/28 04:26:28;;;;;;;10.40;3.20;;;;;;;-144.43;100.00;67396.00;5085994;28;20035;-63
2022/08/28 04:28:55;;;;;;;8.05;2.88;;;;;;;-144.43;100.00;67396.00;5098067;28;20031;-64
2022/08/28 04:31:21;;;;;;;8.70;2.60;;;;;;;-144.43;100.00;67396.00;5093537;28;20016;-61
2022/08/28 04:33:48;;;;;;;10.68;3.05;;;;;;;-144.43;100.00;67396.00;5088933;28;20031;-65
2022/08/28 04:36:17;;;;;;;10.07;2.88;;;;;;;-144.43;100.00;67396.00;5084156;28;20031;-62
2022/08/28 04:38:44;;;;;;;9.25;2.88;;;;;;;-144.43;100.00;67396.00;5087166;28;20108;-66
2022/08/28 04:41:13;;;;;;;12.77;3.10;;;;;;;-144.43;100.00;67396.00;5092302;28;20456;-63
2022/08/28 04:43:40;;;;;;;13.30;2.95;;;;;;;-144.43;100.00;67396.00;5075867;28;20036;-63
2022/08/28 04:46:10;;;;;;;11.18;2.97;;;;;;;-144.43;100.00;67396.00;5087823;28;20051;-62
2022/08/28 04:48:37;;;;;;;10.20;3.15;;;;;;;-144.43;100.00;67396.00;5081042;28;20093;-63
2022/08/28 04:51:08;;;;;;;14.40;3.42;;;;;;;-144.43;100.00;67396.00;5086148;28;20035;-65
2022/08/28 04:53:37;;;;;;;12.77;3.13;;;;;;;-144.43;100.00;67396.00;5092706;28;20044;-64
2022/08/28 04:56:11;;;;;;;10.73;3.08;;;;;;;-144.43;100.00;67396.00;5090980;28;20027;-67
2022/08/28 04:58:40;;;;;;;10.63;3.38;;;;;;;-144.43;100.00;67396.00;5100076;28;20040;-64
2022/08/28 05:01:14;;;;;;;10.95;2.60;;;;;;;-144.43;100.00;67396.00;5101812;28;20022;-65
2022/08/28 05:03:41;;;;;;;21.10;3.45;;;;;;;-144.43;100.00;67396.00;5102466;28;20047;-65
2022/08/28 05:06:10;;;;;;;14.98;3.10;;;;;;;-144.43;100.00;67396.00;5101595;28;20040;-64
2022/08/28 05:08:40;;;;;;;14.07;2.63;;;;;;;-144.43;100.00;67396.00;5095913;28;20044;-65
2022/08/28 05:11:13;;;;;;;8.38;2.63;;;;;;;-144.43;100.00;67396.00;5101736;28;20036;-63
2022/08/28 05:13:41;;;;;;;14.43;2.50;;;;;;;-144.43;100.00;67396.00;5099283;28;20084;-63
2022/08/28 05:16:08;;;;;;;11.05;2.40;;;;;;;-144.43;100.00;67396.00;5101340;28;20300;-65
2022/08/28 05:18:36;;;;;;;12.82;2.67;;;;;;;-144.43;100.00;67396.00;5101216;28;20107;-65
2022/08/28 05:21:03;;;;;;;13.45;2.85;;;;;;;-144.43;100.00;67396.00;5101276;28;20077;-63
2022/08/28 05:23:30;;;;;;;10.55;2.92;;;;;;;-144.43;100.00;67396.00;5100282;28;20027;-63
2022/08/28 05:25:57;;;;;;;15.45;2.90;;;;;;;-144.43;100.00;67396.00;5097477;28;20020;-66
2022/08/28 05:28:24;;;;;;;9.48;2.42;;;;;;;-144.43;100.00;67396.00;5101097;28;20430;-63
2022/08/28 05:30:51;;;;;;;11.77;2.65;;;;;;;-144.43;100.00;67396.00;5098425;28;20031;-65
2022/08/28 05:33:18;;;;;;;20.42;2.97;;;;;;;-144.43;100.00;67396.00;5097479;28;20042;-66
2022/08/28 05:35:46;;;;;;;14.20;2.97;;;;;;;-144.43;100.00;67396.00;5101012;28;20028;-62
2022/08/28 05:38:15;;;;;;;10.40;2.28;;;;;;;-144.43;100.00;67396.00;5099926;28;20090;-63
2022/08/28 05:40:48;;;;;;;10.30;2.40;;;;;;;-144.43;100.00;67396.00;5096333;28;20383;-64
2022/08/28 05:43:16;;;;;;;10.60;2.63;;;;;;;-144.43;100.00;67396.00;5099967;28;20032;-64
2022/08/28 05:45:43;;;;;;;13.80;2.90;;;;;;;-144.43;100.00;67396.00;5100340;28;20050;-63
2022/08/28 05:48:10;;;;;;;19.85;3.15;;;;;;;-144.43;100.00;67396.00;5098258;28;20393;-65
2022/08/28 05:50:38;;;;;;;14.93;2.50;;;;;;;-144.43;100.00;67396.00;5096420;28;20058;-67
2022/08/28 05:53:05;;;;;;;13.13;2.30;;;;;;;-144.43;100.00;67396.00;5100695;28;20101;-65
2022/08/28 05:55:32;;;;;;;19.35;2.55;;;;;;;-144.43;100.00;67396.00;5101274;28;20028;-68
2022/08/28 05:58:27;;;;;;;11.30;2.42;;;;;;;-144.43;100.00;67396.00;5098670;28;20089;-65
2022/08/28 06:00:46;;;;;;;9.32;2.67;;;;;;;-144.43;100.00;67396.00;5101232;28;20032;-65
2022/08/28 06:03:12;;;;;;;11.27;2.17;;;;;;;-144.43;100.00;67396.00;5102537;28;20107;-65
2022/08/28 06:05:39;;;;;;;11.90;2.67;;;;;;;-144.43;100.00;67396.00;5100783;28;20482;-65
2022/08/28 06:08:07;;;;;;;7.53;2.72;;;;;;;-144.43;100.00;67396.00;5101707;28;20058;-67
2022/08/28 06:10:35;;;;;;;10.85;3.10;;;;;;;-144.43;100.00;67396.00;5099297;28;20059;-69
2022/08/28 06:13:03;;;;;;;14.85;2.97;;;;;;;-144.43;100.00;67396.00;5104100;28;20034;-67
2022/08/28 06:15:30;;;;;;;14.98;3.15;;;;;;;-144.43;100.00;67396.00;5103491;28;20115;-69
2022/08/28 06:17:57;;;;;;;13.45;2.88;;;;;;;-144.43;100.00;67396.00;5098310;28;20026;-64
2022/08/28 06:20:24;;;;;;;14.90;3.45;;;;;;;-144.43;100.00;67396.00;5100802;28;20035;-63
2022/08/28 06:22:51;;;;;;;14.60;3.75;;;;;;;-144.43;100.00;67396.00;5077994;28;20471;-64
2022/08/28 06:25:18;;;;;;;12.63;3.38;;;;;;;-144.43;100.00;67396.00;5089587;28;20036;-65
2022/08/28 06:27:44;;;;;;;13.95;3.30;;;;;;;-144.43;100.00;67396.00;5083823;28;20580;-65
2022/08/28 06:30:11;;;;;;;9.30;3.35;;;;;;;-144.43;100.00;67396.00;5091839;28;20486;-64
2022/08/28 06:32:39;;;;;;;13.15;3.60;;;;;;;-144.43;100.00;67396.00;5089758;28;20039;-63
2022/08/28 06:35:06;;;;;;;12.85;3.40;;;;;;;-144.43;100.00;67396.00;5081439;28;20410;-65
2022/08/28 06:37:33;;;;;;;11.60;3.00;;;;;;;-144.43;100.00;67396.00;5093754;28;20489;-65
2022/08/28 06:40:00;;;;;;;17.38;3.72;;;;;;;-144.43;100.00;67396.00;5094967;28;20120;-67
2022/08/28 06:42:27;;;;;;;13.18;3.35;;;;;;;-144.43;100.00;67396.00;5094704;28;20493;-64
2022/08/28 06:44:53;;;;;;;11.52;3.13;;;;;;;-144.43;100.00;67396.00;5093265;28;20037;-63
2022/08/28 06:47:20;;;;;;;10.88;3.70;;;;;;;-144.43;100.00;67396.00;5089807;28;20406;-63
2022/08/28 06:49:47;;;;;;;13.40;3.42;;;;;;;-144.43;100.00;67396.00;5090579;28;20047;-64
2022/08/28 06:52:13;;;;;;;14.00;3.38;;;;;;;-144.43;100.00;67396.00;5094221;28;20024;-69
2022/08/28 06:54:40;;;;;;;14.07;3.45;;;;;;;-144.43;100.00;67396.00;5087070;28;20487;-65
2022/08/28 06:57:07;;;;;;;9.52;3.65;;;;;;;-144.43;100.00;67396.00;5084622;28;20032;-66
2022/08/28 06:59:34;;;;;;;12.88;3.58;;;;;;;-144.43;100.00;67396.00;5085493;28;20376;-64
2022/08/28 07:02:01;;;;;;;10.57;3.58;;;;;;;-144.43;100.00;67396.00;5089335;28;20030;-65
2022/08/28 07:04:28;;;;;;;15.80;3.33;;;;;;;-144.43;100.00;67396.00;5094239;28;20055;-63
2022/08/28 07:06:55;;;;;;;16.75;3.53;;;;;;;-144.43;100.00;67396.00;5079941;28;20080;-65
2022/08/28 07:09:23;;;;;;;12.15;3.10;;;;;;;-144.43;100.00;67396.00;5092149;28;20036;-63
2022/08/28 07:11:50;;;;;;;10.15;2.90;;;;;;;-144.43;100.00;67396.00;5085815;28;20095;-64
2022/08/28 07:14:17;;;;;;;11.88;3.10;;;;;;;-144.43;100.00;67396.00;5080194;28;20024;-65
2022/08/28 07:16:43;;;;;;;13.35;3.17;;;;;;;-144.43;100.00;67396.00;5084063;28;20033;-64
2022/08/28 07:19:19;;;;;;;17.83;3.30;;;;;;;-144.43;100.00;67396.00;5076279;28;20028;-66
2022/08/28 07:21:49;;;;;;;11.82;3.90;;;;;;;-144.43;100.00;67396.00;5085907;28;20032;-64
2022/08/28 07:24:17;;;;;;;11.07;3.42;;;;;;;-144.43;100.00;67396.00;5091978;28;20040;-66
2022/08/28 07:26:45;;;;;;;12.90;3.45;;;;;;;-144.43;100.00;67396.00;5087328;28;20032;-67
2022/08/28 07:29:15;;;;;;;10.65;3.42;;;;;;;-144.43;100.00;67396.00;5090929;28;20028;-67
2022/08/28 07:31:47;;;;;;;12.98;3.30;;;;;;;-144.43;100.00;67396.00;5090957;28;20028;-62
2022/08/28 07:34:19;;;;;;;12.82;3.58;;;;;;;-144.43;100.00;67396.00;5085075;28;20490;-65
2022/08/28 07:36:46;;;;;;;12.07;3.30;;;;;;;-144.43;100.00;67396.00;5090385;28;20078;-64
2022/08/28 07:39:14;;;;;;;13.38;3.47;;;;;;;-144.43;100.00;67396.00;5103085;28;20034;-63
2022/08/28 07:41:41;;;;;;;15.98;3.90;;;;;;;-144.43;100.00;67396.00;5093761;28;20032;-64
2022/08/28 07:46:58;;;;;;;11.20;3.42;;;;;;;-144.43;100.00;67396.00;5090695;28;20036;-63
2022/08/28 07:49:26;;;;;;;12.27;3.63;;;;;;;-144.43;100.00;67396.00;5080697;28;20077;-62
2022/08/28 07:51:52;;;;;;;13.10;3.72;;;;;;;-144.43;100.00;67396.00;5093738;28;20101;-64
2022/08/28 07:54:19;;;;;;;13.43;3.22;;;;;;;-144.43;100.00;67396.00;5079192;28;20413;-64
2022/08/28 07:56:46;;;;;;;11.18;3.58;;;;;;;-144.43;100.00;67396.00;5089973;28;20119;-62
2022/08/28 07:59:15;;;;;;;9.55;3.35;;;;;;;-144.43;100.00;67396.00;5078152;28;20110;-62
2022/08/28 08:01:45;;;;;;;12.45;3.45;;;;;;;-144.43;100.00;67396.00;5093256;28;20028;-63
2022/08/28 08:04:14;;;;;;;12.15;3.53;;;;;;;-144.43;100.00;67396.00;5093300;28;20039;-64
2022/08/28 08:06:44;;;;;;;11.23;3.45;;;;;;;-144.43;100.00;67396.00;5076537;28;20073;-64
2022/08/28 08:09:15;;;;;;;12.02;3.50;;;;;;;-144.43;100.00;67396.00;5088422;28;20059;-64
2022/08/28 08:11:43;;;;;;;9.90;3.38;;;;;;;-144.43;100.00;67396.00;5082354;28;20085;-67
2022/08/28 08:14:10;;;;;;;10.95;3.70;;;;;;;-144.43;100.00;67396.00;5105424;28;20089;-64
2022/08/28 08:16:41;;;;;;;10.93;3.45;;;;;;;-144.43;100.00;67396.00;5095384;28;20544;-63
2022/08/28 08:19:12;;;;;;;9.48;3.58;;;;;;;-144.43;100.00;67396.00;5077740;28;20036;-64
2022/08/28 08:21:41;;;;;;;13.40;4.07;;;;;;;-144.43;100.00;67396.00;5100899;28;20032;-64
2022/08/28 08:24:08;;;;;;;12.57;3.60;;;;;;;-144.43;100.00;67396.00;5096541;28;20489;-63
2022/08/28 08:26:36;;;;;;;12.48;3.70;;;;;;;-144.43;100.00;67396.00;5096340;28;20063;-62
2022/08/28 08:29:03;;;;;;;14.38;4.03;;;;;;;-144.43;100.00;67396.00;5092857;28;20051;-64
2022/08/28 08:31:32;;;;;;;11.30;3.90;;;;;;;-144.43;100.00;67396.00;5093041;28;20039;-63
2022/08/28 08:34:02;;;;;;;12.23;3.53;;;;;;;-144.43;100.00;67396.00;5091596;28;20024;-64
2022/08/28 08:36:32;;;;;;;13.55;4.00;;;;;;;-144.43;100.00;67396.00;5093029;28;20036;-64
2022/08/28 08:39:00;;;;;;;14.23;3.95;;;;;;;-144.43;100.00;67396.00;5092473;28;20049;-63
2022/08/28 08:41:42;;;;;;;14.18;3.78;;;;;;;-144.43;100.00;67396.00;5085439;28;20123;-62
2022/08/28 08:44:25;;;;;;;13.57;3.92;;;;;;;-144.43;100.00;67396.00;5085940;28;20028;-62
2022/08/28 08:47:09;;;;;;;15.50;3.95;;;;;;;-144.43;100.00;67396.00;5086374;28;20036;-64
2022/08/28 08:49:56;;;;;;;13.55;4.00;;;;;;;-144.43;100.00;67396.00;5083030;28;20040;-63
2022/08/28 08:52:40;;;;;;;11.80;4.20;;;;;;;-144.43;100.00;67396.00;5087646;28;20039;-62
2022/08/28 08:55:16;;;;;;;17.73;4.15;;;;;;;-144.43;100.00;67396.00;5084536;28;20127;-63
2022/08/28 08:57:45;;;;;;;16.27;4.25;;;;;;;-144.43;100.00;67396.00;5096777;28;20119;-62
2022/08/28 09:00:13;;;;;;;13.25;3.97;;;;;;;-144.43;100.00;67396.00;5096273;28;20486;-64
2022/08/28 09:02:49;;;;;;;12.88;4.57;;;;;;;-144.43;100.00;67396.00;5096511;28;20051;-62
2022/08/28 09:05:21;;;;;;;11.65;3.90;;;;;;;-144.43;100.00;67396.00;5092209;28;20071;-62
2022/08/28 09:08:02;;;;;;;10.52;3.83;;;;;;;-144.43;100.00;67396.00;5092146;28;20032;-62
2022/08/28 09:10:41;;;;;;;14.07;3.92;;;;;;;-144.43;100.00;67396.00;5092062;28;20036;-63
2022/08/28 09:13:18;;;;;;;12.65;3.80;;;;;;;-144.43;100.00;67396.00;5090044;28;20043;-65
2022/08/28 09:15:45;;;;;;;12.88;3.58;;;;;;;-144.43;100.00;67396.00;5092593;28;20044;-64
2022/08/28 09:18:26;;;;;;;12.98;3.70;;;;;;;-144.43;100.00;67396.00;5092531;28;20107;-64
2022/08/28 09:20:55;;;;;;;10.88;3.50;;;;;;;-144.43;100.00;67396.00;5092520;28;20028;-62
2022/08/28 09:23:24;;;;;;;13.35;3.75;;;;;;;-144.43;100.00;67396.00;5089784;28;20016;-64
2022/08/28 09:26:00;;;;;;;10.00;3.55;;;;;;;-144.43;100.00;67396.00;5076228;28;20042;-64
2022/08/28 09:28:30;;;;;;;11.63;3.60;;;;;;;-144.43;100.00;67396.00;5093203;28;20028;-64
2022/08/28 09:31:32;;;;;;;13.90;4.10;;;;;;;-144.43;100.00;67396.00;5096164;28;20028;-64
2022/08/28 09:34:24;;;;;;;12.88;3.70;;;;;;;-144.43;100.00;67396.00;5096482;28;20036;-63
2022/08/28 09:36:53;;;;;;;16.45;3.97;;;;;;;-144.43;100.00;67396.00;5096336;28;20040;-62
2022/08/28 09:39:34;;;;;;;12.40;4.07;;;;;;;-144.43;100.00;67396.00;5096186;28;20051;-62
2022/08/28 09:45:03;;;;;;;12.20;3.45;;;;;;;-144.43;100.00;67396.00;5094201;28;20036;-65
2022/08/28 09:47:47;;;;;;;11.82;3.65;;;;;;;-144.43;100.00;67396.00;5094322;28;20557;-65
2022/08/28 09:50:29;;;;;;;13.20;3.78;;;;;;;-144.43;100.00;67396.00;5094130;28;20143;-62
2022/08/28 09:53:17;;;;;;;13.32;4.30;;;;;;;-144.43;100.00;67396.00;5094198;28;20047;-65
2022/08/28 09:56:16;;;;;;;12.98;3.65;;;;;;;-144.43;100.00;67396.00;5094061;28;20043;-62
2022/08/28 09:58:50;;;;;;;12.38;4.05;;;;;;;-144.43;100.00;67396.00;5093755;28;20371;-64
2022/08/28 10:01:40;;;;;;;11.13;3.63;;;;;;;-144.43;100.00;67396.00;5095615;28;20484;-63
2022/08/28 10:04:16;;;;;;;15.57;4.13;;;;;;;-144.43;100.00;67396.00;5096161;28;20382;-67
2022/08/28 10:06:54;;;;;;;14.95;4.18;;;;;;;-144.43;100.00;67396.00;5095665;28;20422;-65
2022/08/28 10:09:32;;;;;;;15.02;3.88;;;;;;;-144.43;100.00;67396.00;5095706;28;20044;-64
2022/08/28 10:12:15;;;;;;;14.35;4.00;;;;;;;-144.43;100.00;67396.00;5095699;28;20032;-64
2022/08/28 10:15:21;;;;;;;11.27;4.05;;;;;;;-144.43;100.00;67396.00;5095655;28;20074;-65
2022/08/28 10:18:11;;;;;;;11.23;3.53;;;;;;;-144.43;100.00;67396.00;5095671;28;20145;-63
2022/08/28 10:20:52;;;;;;;10.02;3.78;;;;;;;-144.43;100.00;67396.00;5095775;28;20214;-64
2022/08/28 10:23:34;;;;;;;12.15;4.03;;;;;;;-144.43;100.00;67396.00;5095479;28;20499;-64
2022/08/28 10:26:06;;;;;;;14.77;4.28;;;;;;;-144.43;100.00;67396.00;5095401;28;20032;-65
2022/08/28 10:28:57;;;;;;;13.18;4.25;;;;;;;-144.43;100.00;67396.00;5095297;28;20170;-64
2022/08/28 10:32:10;;;;;;;15.05;4.47;;;;;;;-144.43;100.00;67396.00;5095294;28;20134;-64
2022/08/28 10:35:10;;;;;;;15.73;4.43;;;;;;;-144.43;100.00;67396.00;5076126;28;20047;-64
2022/08/28 10:37:59;;;;;;;14.57;4.05;;;;;;;-144.43;100.00;67396.00;5094942;28;20032;-62
2022/08/28 10:40:50;;;;;;;12.70;4.40;;;;;;;-144.43;100.00;67396.00;5094812;28;20051;-64
2022/08/28 10:43:42;;;;;;;13.57;3.80;;;;;;;-144.43;100.00;67396.00;5094864;28;20510;-63
2022/08/28 10:46:29;;;;;;;12.48;3.78;;;;;;;-144.43;100.00;67396.00;5088440;28;20384;-64
2022/08/28 10:49:02;;;;;;;13.48;4.05;;;;;;;-144.43;100.00;67396.00;5095324;28;20036;-63
2022/08/28 10:52:01;;;;;;;17.02;3.95;;;;;;;-144.43;100.00;67396.00;5095151;28;20039;-64
2022/08/28 10:54:32;;;;;;;16.88;3.78;;;;;;;-144.43;100.00;67396.00;5085955;28;20044;-65
2022/08/28 10:57:09;;;;;;;11.52;3.88;;;;;;;-144.43;100.00;67396.00;5094911;28;20059;-64
2022/08/28 10:59:37;;;;;;;14.10;3.97;;;;;;;-144.43;100.00;67396.00;5094438;28;20466;-63
2022/08/28 11:02:07;;;;;;;19.58;4.03;;;;;;;-144.43;100.00;67396.00;5094927;28;20054;-62
2022/08/28 11:04:34;;;;;;;12.43;3.88;;;;;;;-144.43;100.00;67396.00;5094922;28;20063;-64
2022/08/28 11:07:08;;;;;;;15.80;4.00;;;;;;;-144.43;100.00;67396.00;5094512;28;20444;-64
2022/08/28 11:09:38;;;;;;;10.75;4.07;;;;;;;-144.43;100.00;67396.00;5095135;28;20038;-64
2022/08/28 11:12:26;;;;;;;11.48;3.50;;;;;;;-144.43;100.00;67396.00;5094718;28;20067;-64
2022/08/28 11:14:53;;;;;;;14.35;4.25;;;;;;;-144.43;100.00;67396.00;5094527;28;20036;-63
2022/08/28 11:17:29;;;;;;;15.07;4.50;;;;;;;-144.43;100.00;67396.00;5094306;28;20024;-63
2022/08/28 11:20:14;;;;;;;28.65;5.03;;;;;;;-144.43;100.00;67396.00;5094387;28;20068;-64
2022/08/28 11:22:57;;;;;;;12.68;4.53;;;;;;;-144.43;100.00;67396.00;5094408;28;20032;-64
2022/08/28 11:25:41;;;;;;;12.50;4.30;;;;;;;-144.43;100.00;67396.00;5094120;28;20067;-64
2022/08/28 11:28:22;;;;;;;13.35;4.13;;;;;;;-144.43;100.00;67396.00;5094304;28;20390;-62
2022/08/28 11:31:09;;;;;;;15.15;4.20;;;;;;;-144.43;100.00;67396.00;5094089;28;20028;-64